Time;durP1;ratioP1;P1;durP2;ratioP2;P2;SDS_P1;SDS_P2;PMS_P1;PMS_P2;Temp;Humidity;BMP_temperature;BMP_pressure;BME280_temperature;BME280_humidity;BME280_pressure;Samples;Min_cycle;Max_cycle;Signal;HPM_P1;HPM_P2
2024/04/19 05:12:00;;;;;;;;;;;;;;;6.12;100.00;99583.16;5839825;21;19934;-81
2024/04/19 05:14:25;;;;;;;;;;;;;;;5.93;100.00;99583.63;5363463;26;19930;-80
2024/04/19 05:16:50;;;;;;;;;;;;;;;5.63;100.00;99580.03;5363313;26;19937;-81
2024/04/19 05:19:15;;;;;;;;;;;;;;;5.54;100.00;99583.78;5363125;26;19938;-81
2024/04/19 05:21:40;;;;;;;;;;;;;;;5.50;100.00;99587.38;5362997;26;19930;-81
2024/04/19 05:24:06;;;;;;;;;;;;;;;5.48;100.00;99591.81;5362841;26;19937;-80
2024/04/19 05:26:31;;;;;;;;;;;;;;;5.45;100.00;99581.38;5361908;26;19937;-79
2024/04/19 05:28:56;;;;;;;;;;;;;;;5.30;100.00;99584.38;5332602;26;20352;-79
2024/04/19 05:31:21;;;;;;;;;;;;;;;5.27;100.00;99586.19;5332447;26;20312;-80
2024/04/19 05:33:49;;;;;;;;;;;;;;;5.19;100.00;99571.53;5363050;26;20342;-80
2024/04/19 05:36:14;;;;;;;;;;;;;;;5.08;100.00;99569.16;5363811;26;19930;-79
2024/04/19 05:38:39;;;;;;;;;;;;;;;5.03;100.00;99565.78;5331422;26;19933;-80
2024/04/19 05:41:05;;;;;;;;;;;;;;;5.03;100.00;99560.53;5330521;26;19934;-79
2024/04/19 05:43:30;;;;;;;;;;;;;;;5.05;100.00;99545.59;5331588;26;19934;-79
2024/04/19 05:45:55;;;;;;;;;;;;;;;4.99;100.00;99545.72;5361069;26;19929;-80
2024/04/19 05:48:20;;;;;;;;;;;;;;;4.93;100.00;99538.88;5362029;26;19937;-78
2024/04/19 05:50:46;;;;;;;;;;;;;;;4.96;100.00;99537.91;5362289;26;19936;-79
2024/04/19 05:53:11;;;;;;;;;;;;;;;4.89;100.00;99547.72;5363055;26;19941;-78
2024/04/19 05:55:36;;;;;;;;;;;;;;;4.88;100.00;99538.09;5361182;26;19930;-78
2024/04/19 05:58:02;;;;;;;;;;;;;;;4.85;100.00;99546.94;5362037;26;19929;-78
2024/04/19 06:00:27;;;;;;;;;;;;;;;4.88;100.00;99541.59;5332091;26;19976;-78
2024/04/19 06:02:52;;;;;;;;;;;;;;;4.75;100.00;99534.91;5363124;26;19938;-79
2024/04/19 06:05:18;;;;;;;;;;;;;;;4.79;100.00;99543.59;5362295;26;19981;-80
2024/04/19 06:07:43;;;;;;;;;;;;;;;4.73;100.00;99521.81;5361596;26;19939;-80
2024/04/19 06:10:08;;;;;;;;;;;;;;;4.79;100.00;99519.97;5362222;26;19930;-82
2024/04/19 06:12:33;;;;;;;;;;;;;;;4.78;100.00;99510.34;5361378;26;19941;-80
2024/04/19 06:14:59;;;;;;;;;;;;;;;4.84;100.00;99508.44;5361963;26;19941;-78
2024/04/19 06:17:24;;;;;;;;;;;;;;;4.76;100.00;99504.28;5361796;26;20267;-80
2024/04/19 06:19:49;;;;;;;;;;;;;;;4.72;100.00;99492.97;5362335;26;19999;-79
2024/04/19 06:22:15;;;;;;;;;;;;;;;4.71;100.00;99501.75;5361503;26;19930;-79
2024/04/19 06:24:40;;;;;;;;;;;;;;;4.73;100.00;99499.94;5361775;26;19930;-79
2024/04/19 06:27:05;;;;;;;;;;;;;;;4.69;100.00;99499.16;5359834;26;19930;-79
2024/04/19 06:29:30;;;;;;;;;;;;;;;4.64;100.00;99494.91;5361916;26;19930;-80
2024/04/19 06:31:56;;;;;;;;;;;;;;;4.61;100.00;99500.22;5362248;26;19931;-80
2024/04/19 06:34:21;;;;;;;;;;;;;;;4.64;100.00;99493.16;5361601;26;19930;-84
2024/04/19 06:36:46;;;;;;;;;;;;;;;4.65;100.00;99488.78;5361236;26;19954;-80
2024/04/19 06:39:22;;;;;;;;;;;;;;;4.63;100.00;99487.97;5361629;26;20357;-81
2024/04/19 06:41:47;;;;;;;;;;;;;;;4.65;100.00;99486.16;5359832;26;19937;-79
2024/04/19 06:44:12;;;;;;;;;;;;;;;4.63;100.00;99483.56;5361537;26;19929;-79
2024/04/19 06:46:37;;;;;;;;;;;;;;;4.53;100.00;99479.41;5362063;26;19929;-80
2024/04/19 06:49:03;;;;;;;;;;;;;;;4.57;100.00;99483.69;5361713;26;19929;-80
2024/04/19 06:51:28;;;;;;;;;;;;;;;4.55;100.00;99470.63;5361782;26;19936;-80
2024/04/19 06:53:53;;;;;;;;;;;;;;;4.50;100.00;99461.09;5361195;26;20350;-80
2024/04/19 06:56:18;;;;;;;;;;;;;;;4.51;100.00;99460.22;5359868;26;20300;-80
2024/04/19 06:58:48;;;;;;;;;;;;;;;4.49;100.00;99452.38;5365344;26;19930;-80
2024/04/19 07:01:13;;;;;;;;;;;;;;;4.57;100.00;99453.97;5334637;26;20273;-79
2024/04/19 07:03:39;;;;;;;;;;;;;;;4.52;100.00;99454.09;5365526;26;20000;-80
2024/04/19 07:06:11;;;;;;;;;;;;;;;4.44;100.00;99445.53;5364611;26;19930;-80
2024/04/19 07:50:36;;;;;;;;;;;;;;;4.37;100.00;99379.22;5398255;26;19999;-84
2024/04/19 07:53:01;;;;;;;;;;;;;;;4.37;100.00;99376.59;5400451;26;19957;-80
2024/04/19 07:55:26;;;;;;;;;;;;;;;4.43;100.00;99373.81;5398970;26;19999;-80
2024/04/19 07:57:52;;;;;;;;;;;;;;;4.35;100.00;99368.75;5399119;26;19979;-87
2024/04/19 08:00:17;;;;;;;;;;;;;;;4.38;100.00;99366.97;5399510;26;20272;-80
2024/04/19 08:02:45;;;;;;;;;;;;;;;4.43;100.00;99362.47;5398587;26;19929;-80
2024/04/19 08:05:11;;;;;;;;;;;;;;;4.42;100.00;99351.13;5398821;26;19944;-79
2024/04/19 08:07:36;;;;;;;;;;;;;;;4.43;100.00;99355.44;5398648;26;19932;-80
2024/04/19 08:10:02;;;;;;;;;;;;;;;4.40;100.00;99358.16;5368254;26;19998;-80
2024/04/19 08:12:28;;;;;;;;;;;;;;;4.42;100.00;99345.00;5399183;26;20259;-81
2024/04/19 08:14:53;;;;;;;;;;;;;;;4.42;100.00;99338.00;5398692;26;19936;-80
2024/04/19 08:17:18;;;;;;;;;;;;;;;4.47;100.00;99343.13;5397325;26;19929;-80
2024/04/19 08:19:43;;;;;;;;;;;;;;;4.47;100.00;99338.75;5399739;26;19929;-80
2024/04/19 08:22:10;;;;;;;;;;;;;;;4.43;100.00;99342.34;5398864;26;19930;-83
2024/04/19 08:24:37;;;;;;;;;;;;;;;4.47;100.00;99333.50;5397727;26;20209;-81
2024/04/19 08:27:02;;;;;;;;;;;;;;;4.41;100.00;99340.66;5396927;26;20003;-80
2024/04/19 08:29:28;;;;;;;;;;;;;;;4.46;100.00;99339.63;5398834;26;19940;-79
2024/04/19 08:31:53;;;;;;;;;;;;;;;4.43;100.00;99334.47;5398629;26;19936;-81
2024/04/19 08:34:18;;;;;;;;;;;;;;;4.45;100.00;99332.69;5397846;26;19936;-82
2024/04/19 08:36:43;;;;;;;;;;;;;;;4.49;100.00;99331.69;5397378;26;20265;-82
2024/04/19 08:39:09;;;;;;;;;;;;;;;4.37;100.00;99316.25;5398789;26;19936;-82
2024/04/19 08:41:34;;;;;;;;;;;;;;;4.52;100.00;99325.50;5399221;26;19929;-82
2024/04/19 08:44:00;;;;;;;;;;;;;;;4.42;100.00;99327.50;5398976;26;19941;-85
2024/04/19 08:46:30;;;;;;;;;;;;;;;4.43;100.00;99313.47;5366654;26;19933;-86
2024/04/19 08:48:56;;;;;;;;;;;;;;;4.48;100.00;99319.50;5395651;26;19929;-83
2024/04/19 08:51:22;;;;;;;;;;;;;;;4.48;100.00;99318.59;5398613;26;19936;-86
2024/04/19 08:53:51;;;;;;;;;;;;;;;4.42;100.00;99319.63;5366438;26;19929;-83
2024/04/19 08:56:16;;;;;;;;;;;;;;;4.38;100.00;99315.34;5396754;26;19929;-82
2024/04/19 08:58:41;;;;;;;;;;;;;;;4.46;100.00;99316.03;5367432;26;19929;-83
2024/04/19 09:01:07;;;;;;;;;;;;;;;4.36;100.00;99304.91;5399013;26;19936;-84
2024/04/19 09:03:32;;;;;;;;;;;;;;;4.38;100.00;99314.50;5396971;26;20392;-81
2024/04/19 09:05:57;;;;;;;;;;;;;;;4.35;100.00;99312.81;5398089;26;19933;-84
2024/04/19 09:08:23;;;;;;;;;;;;;;;4.42;100.00;99306.53;5367031;26;19941;-83
2024/04/19 09:10:51;;;;;;;;;;;;;;;4.39;100.00;99301.34;5398816;26;19939;-84
2024/04/19 09:13:17;;;;;;;;;;;;;;;4.43;100.00;99296.88;5364215;26;19938;-80
2024/04/19 09:15:45;;;;;;;;;;;;;;;4.43;100.00;99289.88;5397781;26;19929;-80
2024/04/19 09:18:11;;;;;;;;;;;;;;;4.53;100.00;99296.63;5365193;26;19956;-80
2024/04/19 09:20:36;;;;;;;;;;;;;;;4.49;100.00;99287.09;5396024;26;19937;-82
2024/04/19 09:23:01;;;;;;;;;;;;;;;4.46;100.00;99279.28;5398080;26;19929;-83
2024/04/19 09:25:26;;;;;;;;;;;;;;;4.41;100.00;99277.72;5396193;26;19997;-91
2024/04/19 09:27:55;;;;;;;;;;;;;;;4.45;100.00;99282.84;5397913;26;20380;-83
2024/04/19 09:30:21;;;;;;;;;;;;;;;4.46;100.00;99274.03;5397080;26;19936;-79
2024/04/19 09:32:47;;;;;;;;;;;;;;;4.35;100.00;99276.09;5394225;26;19930;-80
2024/04/19 09:35:12;;;;;;;;;;;;;;;4.39;100.00;99279.47;5397769;26;19929;-84
2024/04/19 09:37:39;;;;;;;;;;;;;;;4.40;100.00;99282.06;5398462;26;19928;-79
2024/04/19 09:40:04;;;;;;;;;;;;;;;4.43;100.00;99275.91;5397723;26;19933;-80
2024/04/19 09:42:31;;;;;;;;;;;;;;;4.45;100.00;99269.72;5397398;26;19933;-79
2024/04/19 09:44:58;;;;;;;;;;;;;;;4.39;100.00;99269.88;5397740;26;19929;-80
2024/04/19 09:47:25;;;;;;;;;;;;;;;4.36;100.00;99270.81;5396476;26;20328;-80
2024/04/19 09:49:55;;;;;;;;;;;;;;;4.49;100.00;99267.88;5397157;26;19929;-80
2024/04/19 09:52:22;;;;;;;;;;;;;;;4.42;100.00;99275.03;5398350;26;19937;-81
2024/04/19 09:55:20;;;;;;;;;;;;;;;4.48;100.00;99258.25;5398222;26;19928;-81
2024/04/19 09:57:48;;;;;;;;;;;;;;;4.35;100.00;99255.09;5338242;26;20025;-86
2024/04/19 10:00:14;;;;;;;;;;;;;;;4.38;100.00;99255.03;5398203;26;20263;-79
2024/04/19 10:02:40;;;;;;;;;;;;;;;4.46;100.00;99245.19;5364047;26;19937;-82
2024/04/19 10:05:06;;;;;;;;;;;;;;;4.41;100.00;99252.31;5397561;26;19929;-82
2024/04/19 10:07:31;;;;;;;;;;;;;;;4.45;100.00;99247.84;5367187;26;19930;-80
2024/04/19 10:09:58;;;;;;;;;;;;;;;4.43;100.00;99250.50;5396995;26;19930;-80
2024/04/19 10:12:24;;;;;;;;;;;;;;;4.41;100.00;99246.22;5397031;26;19937;-81
2024/04/19 10:14:49;;;;;;;;;;;;;;;4.46;100.00;99239.94;5366753;26;19950;-84
2024/04/19 10:17:14;;;;;;;;;;;;;;;4.45;100.00;99239.97;5396063;26;19929;-81
2024/04/19 10:19:42;;;;;;;;;;;;;;;4.38;100.00;99239.28;5396928;26;19930;-80
2024/04/19 10:22:08;;;;;;;;;;;;;;;4.45;100.00;99233.00;5396722;26;19936;-82
2024/04/19 10:24:34;;;;;;;;;;;;;;;4.39;100.00;99227.91;5396625;26;19999;-81
2024/04/19 10:27:02;;;;;;;;;;;;;;;4.43;100.00;99221.66;5396703;26;19929;-81
2024/04/19 10:29:27;;;;;;;;;;;;;;;4.46;100.00;99218.09;5397062;26;19961;-83
2024/04/19 10:31:53;;;;;;;;;;;;;;;4.39;100.00;99208.66;5397720;26;19929;-82
2024/04/19 10:34:19;;;;;;;;;;;;;;;4.95;100.00;99203.59;5398996;26;20258;-80
2024/04/19 10:36:45;;;;;;;;;;;;;;;5.40;100.00;99199.63;5399914;26;19958;-82
2024/04/19 10:39:10;;;;;;;;;;;;;;;5.72;100.00;99208.28;5400354;26;20366;-82
2024/04/19 10:41:36;;;;;;;;;;;;;;;5.89;100.00;99207.69;5400263;26;19940;-83
2024/04/19 10:44:01;;;;;;;;;;;;;;;6.04;100.00;99209.03;5399991;26;19940;-83
2024/04/19 10:46:27;;;;;;;;;;;;;;;6.20;100.00;99193.56;5400058;26;19999;-84
2024/04/19 10:48:53;;;;;;;;;;;;;;;6.27;100.00;99190.69;5399157;26;20314;-89
2024/04/19 10:51:20;;;;;;;;;;;;;;;6.40;100.00;99184.97;5400611;26;19929;-82
2024/04/19 10:53:45;;;;;;;;;;;;;;;6.46;100.00;99190.03;5399580;26;19929;-83
2024/04/19 10:56:10;;;;;;;;;;;;;;;6.55;100.00;99184.44;5400457;26;19961;-83
2024/04/19 10:58:36;;;;;;;;;;;;;;;6.63;100.00;99186.78;5400401;26;19998;-82
2024/04/19 11:01:01;;;;;;;;;;;;;;;6.70;100.00;99170.72;5399825;26;19929;-88
2024/04/19 11:03:26;;;;;;;;;;;;;;;6.75;100.00;99181.09;5399200;26;20364;-82
2024/04/19 11:05:52;;;;;;;;;;;;;;;6.83;100.00;99178.16;5368167;26;19956;-91
2024/04/19 11:08:18;;;;;;;;;;;;;;;6.88;100.00;99182.34;5369143;26;19941;-82
2024/04/19 11:10:43;;;;;;;;;;;;;;;6.93;100.00;99174.28;5399595;26;19935;-82
2024/04/19 11:13:09;;;;;;;;;;;;;;;6.99;100.00;99167.91;5400385;26;20430;-88
2024/04/19 11:15:34;;;;;;;;;;;;;;;7.05;100.00;99173.81;5397949;26;19980;-89
2024/04/19 11:17:59;;;;;;;;;;;;;;;7.15;100.00;99169.06;5397946;26;19929;-86
2024/04/19 11:20:25;;;;;;;;;;;;;;;7.16;100.00;99154.09;5400383;26;19936;-82
2024/04/19 11:22:50;;;;;;;;;;;;;;;7.21;100.00;99146.84;5399977;26;19934;-81
2024/04/19 11:25:15;;;;;;;;;;;;;;;7.23;100.00;99147.69;5397504;26;19999;-83
2024/04/19 11:27:41;;;;;;;;;;;;;;;7.27;100.00;99151.88;5399630;26;20264;-82
2024/04/19 11:30:06;;;;;;;;;;;;;;;7.31;100.00;99142.06;5400836;26;19929;-90
2024/04/19 11:32:31;;;;;;;;;;;;;;;7.34;100.00;99144.59;5387608;26;19935;-81
2024/04/19 11:34:58;;;;;;;;;;;;;;;7.35;100.00;99134.00;5399221;26;19929;-91
2024/04/19 11:37:23;;;;;;;;;;;;;;;7.39;100.00;99130.31;5357203;26;19949;-86
2024/04/19 11:39:49;;;;;;;;;;;;;;;7.45;100.00;99124.81;5398714;26;19937;-88
2024/04/19 11:42:14;;;;;;;;;;;;;;;7.48;100.00;99128.22;5367562;26;20368;-82
2024/04/19 11:44:40;;;;;;;;;;;;;;;7.55;100.00;99127.06;5398919;26;19929;-81
2024/04/19 11:47:05;;;;;;;;;;;;;;;7.59;100.00;99126.00;5397992;26;19937;-84
2024/04/19 11:49:30;;;;;;;;;;;;;;;7.62;100.00;99121.47;5368278;26;19936;-86
2024/04/19 11:51:56;;;;;;;;;;;;;;;7.62;100.00;99121.47;5357144;26;19944;-83
2024/04/19 11:54:21;;;;;;;;;;;;;;;7.64;100.00;99117.00;5398906;26;19929;-88
2024/04/19 11:56:55;;;;;;;;;;;;;;;7.69;100.00;99110.66;5368507;26;19936;-87
2024/04/19 11:59:21;;;;;;;;;;;;;;;7.71;100.00;99111.47;5366336;26;19934;-81
2024/04/19 12:01:46;;;;;;;;;;;;;;;7.76;100.00;99112.97;5399700;26;19985;-83
2024/04/19 12:04:11;;;;;;;;;;;;;;;7.81;100.00;99111.00;5367193;26;20264;-81
2024/04/19 12:06:37;;;;;;;;;;;;;;;7.67;100.00;99108.09;5398996;26;19999;-83
2024/04/19 12:09:02;;;;;;;;;;;;;;;6.73;100.00;99103.91;5398935;26;19940;-83
2024/04/19 12:11:28;;;;;;;;;;;;;;;6.43;100.00;99095.38;5368322;26;19929;-80
2024/04/19 12:13:54;;;;;;;;;;;;;;;6.16;100.00;99091.09;5399418;26;19936;-89
2024/04/19 12:16:19;;;;;;;;;;;;;;;6.03;100.00;99083.69;5397360;26;19957;-83
2024/04/19 12:18:44;;;;;;;;;;;;;;;5.81;100.00;99087.88;5397540;26;19936;-82
2024/04/19 12:21:11;;;;;;;;;;;;;;;5.72;100.00;99077.69;5393703;26;20014;-86
2024/04/19 12:23:36;;;;;;;;;;;;;;;5.61;100.00;99079.81;5367880;26;19940;-83
2024/04/19 12:26:01;;;;;;;;;;;;;;;5.66;100.00;99075.25;5368709;26;19941;-89
2024/04/19 12:28:28;;;;;;;;;;;;;;;5.48;100.00;99073.28;5355551;26;19998;-83
2024/04/19 12:30:54;;;;;;;;;;;;;;;5.42;100.00;99075.16;5399241;26;19929;-87
2024/04/19 12:33:19;;;;;;;;;;;;;;;5.48;100.00;99073.28;5397586;26;19936;-87
2024/04/19 12:35:45;;;;;;;;;;;;;;;5.50;100.00;99061.78;5399188;26;19929;-90
2024/04/19 12:38:10;;;;;;;;;;;;;;;5.39;100.00;99063.91;5367024;26;19978;-87
2024/04/19 12:40:35;;;;;;;;;;;;;;;5.35;100.00;99068.41;5399077;26;19999;-87
2024/04/19 12:43:01;;;;;;;;;;;;;;;5.37;100.00;99071.00;5398298;26;19942;-91
2024/04/19 12:45:26;;;;;;;;;;;;;;;5.27;100.00;99065.19;5367162;26;19929;-83
2024/04/19 12:48:00;;;;;;;;;;;;;;;5.35;100.00;99062.31;5397682;26;19936;-85
2024/04/19 12:50:26;;;;;;;;;;;;;;;5.17;100.00;99048.88;5361213;26;19942;-83
2024/04/19 12:52:51;;;;;;;;;;;;;;;5.12;100.00;99057.78;5362797;26;19999;-81
2024/04/19 12:55:16;;;;;;;;;;;;;;;5.14;100.00;99042.84;5362481;26;19929;-83
2024/04/19 12:57:41;;;;;;;;;;;;;;;5.07;100.00;99036.94;5362108;26;20003;-83
2024/04/19 13:00:07;;;;;;;;;;;;;;;5.05;100.00;99030.88;5361677;26;19930;-82
2024/04/19 13:02:33;;;;;;;;;;;;;;;6.08;100.00;99032.63;5359900;26;19930;-82
2024/04/19 13:04:58;;;;;;;;;;;;;;;5.55;100.00;99028.34;5360835;26;19962;-83
2024/04/19 13:07:23;;;;;;;;;;;;;;;5.22;100.00;99018.06;5362101;26;20148;-79
2024/04/19 13:09:48;;;;;;;;;;;;;;;5.19;100.00;99018.16;5361366;26;19930;-84
2024/04/19 13:12:14;;;;;;;;;;;;;;;5.27;100.00;99012.66;5361058;26;19999;-80
2024/04/19 13:14:39;;;;;;;;;;;;;;;5.23;100.00;99001.41;5361443;26;20269;-79
2024/04/19 13:17:04;;;;;;;;;;;;;;;5.20;100.00;99006.75;5360323;26;19937;-82
2024/04/19 13:19:29;;;;;;;;;;;;;;;5.16;100.00;98984.09;5362610;26;19945;-82
2024/04/19 13:21:55;;;;;;;;;;;;;;;5.03;100.00;98993.31;5362314;26;19941;-80
2024/04/19 13:24:20;;;;;;;;;;;;;;;5.21;100.00;98981.34;5362891;26;19941;-80
2024/04/19 13:26:45;;;;;;;;;;;;;;;5.09;100.00;98974.72;5363437;26;20566;-81
2024/04/19 13:29:11;;;;;;;;;;;;;;;5.11;100.00;98986.03;5362782;26;19981;-81
2024/04/19 13:31:36;;;;;;;;;;;;;;;5.07;100.00;98968.66;5362410;26;19936;-81
2024/04/19 13:34:01;;;;;;;;;;;;;;;5.00;100.00;98967.16;5361238;26;19929;-83
2024/04/19 13:36:26;;;;;;;;;;;;;;;4.94;100.00;98964.72;5363112;26;19936;-82
2024/04/19 13:38:51;;;;;;;;;;;;;;;5.07;100.00;98959.03;5362815;26;19930;-81
2024/04/19 13:41:17;;;;;;;;;;;;;;;5.02;100.00;98966.19;5363210;26;19930;-80
2024/04/19 13:43:42;;;;;;;;;;;;;;;5.07;100.00;98956.41;5360831;26;19933;-81
2024/04/19 13:46:07;;;;;;;;;;;;;;;5.08;100.00;98950.22;5361800;26;19936;-81
2024/04/19 13:48:39;;;;;;;;;;;;;;;4.93;100.00;98955.13;5365017;26;19937;-80
2024/04/19 13:51:07;;;;;;;;;;;;;;;4.94;100.00;98954.22;5396968;26;19936;-83
2024/04/19 13:53:35;;;;;;;;;;;;;;;5.06;100.00;98945.94;5366539;26;20027;-81
2024/04/19 13:56:02;;;;;;;;;;;;;;;4.97;100.00;98957.59;5397596;26;20343;-81
2024/04/19 13:58:29;;;;;;;;;;;;;;;4.96;100.00;98949.78;5364238;26;19941;-81
2024/04/19 14:00:55;;;;;;;;;;;;;;;4.97;100.00;98962.84;5397537;26;19933;-84
2024/04/19 14:03:20;;;;;;;;;;;;;;;4.97;100.00;98959.38;5365166;26;19936;-81
2024/04/19 14:05:45;;;;;;;;;;;;;;;4.97;100.00;98968.09;5365790;26;20370;-82
2024/04/19 14:08:11;;;;;;;;;;;;;;;4.96;100.00;98982.13;5368595;26;20020;-82
2024/04/19 14:10:36;;;;;;;;;;;;;;;4.83;100.00;98979.03;5401231;26;19929;-81
2024/04/19 14:13:02;;;;;;;;;;;;;;;4.89;100.00;98975.38;5401029;26;19929;-81
2024/04/19 14:15:28;;;;;;;;;;;;;;;5.04;100.00;98968.75;5367723;26;20367;-80
2024/04/19 14:17:53;;;;;;;;;;;;;;;4.90;100.00;98964.81;5398655;26;19929;-82
2024/04/19 14:20:19;;;;;;;;;;;;;;;4.94;100.00;98977.84;5401573;26;19969;-82
2024/04/19 14:22:44;;;;;;;;;;;;;;;5.01;100.00;98974.09;5400719;26;20322;-81
2024/04/19 14:25:12;;;;;;;;;;;;;;;4.93;100.00;98965.63;5400053;26;21038;-82
2024/04/19 14:27:43;;;;;;;;;;;;;;;4.81;100.00;98978.25;5401031;26;19928;-82
2024/04/19 14:30:08;;;;;;;;;;;;;;;4.85;100.00;98982.50;5367370;26;20004;-81
2024/04/19 14:32:34;;;;;;;;;;;;;;;4.91;100.00;98990.19;5398695;26;20368;-82
2024/04/19 14:34:59;;;;;;;;;;;;;;;5.19;100.00;98983.16;5400958;26;19939;-81
2024/04/19 14:37:24;;;;;;;;;;;;;;;5.18;100.00;98986.69;5400925;26;19937;-83
2024/04/19 14:39:49;;;;;;;;;;;;;;;5.00;100.00;98986.38;5400262;26;19930;-84
2024/04/19 14:42:15;;;;;;;;;;;;;;;5.13;100.00;98999.97;5399861;26;19945;-84
2024/04/19 14:44:40;;;;;;;;;;;;;;;5.01;100.00;99001.25;5401356;26;20364;-82
2024/04/19 14:47:05;;;;;;;;;;;;;;;5.04;100.00;98995.00;5399157;26;19929;-82
2024/04/19 14:49:30;;;;;;;;;;;;;;;5.08;100.00;98997.50;5398108;26;19999;-84
2024/04/19 14:52:00;;;;;;;;;;;;;;;5.13;100.00;98996.50;5400171;26;19945;-86
2024/04/19 14:54:26;;;;;;;;;;;;;;;5.07;100.00;98997.53;5369254;26;19928;-81
2024/04/19 14:56:54;;;;;;;;;;;;;;;4.97;100.00;98998.75;5398247;26;19969;-84
2024/04/19 14:59:19;;;;;;;;;;;;;;;4.98;100.00;99010.97;5400333;26;19943;-81
2024/04/19 15:01:45;;;;;;;;;;;;;;;4.91;100.00;99012.94;5400153;26;20344;-82
2024/04/19 15:04:10;;;;;;;;;;;;;;;4.84;100.00;99004.41;5398280;26;19929;-82
2024/04/19 15:06:35;;;;;;;;;;;;;;;5.01;100.00;99000.38;5400891;26;19936;-82
2024/04/19 15:09:00;;;;;;;;;;;;;;;4.66;100.00;98997.97;5399811;26;19937;-86
2024/04/19 15:11:25;;;;;;;;;;;;;;;4.74;100.00;99000.38;5399904;26;19942;-83
2024/04/19 15:13:51;;;;;;;;;;;;;;;4.73;100.00;98990.75;5400423;26;19928;-83
2024/04/19 15:16:16;;;;;;;;;;;;;;;4.70;100.00;98996.09;5400138;26;20288;-82
2024/04/19 15:18:41;;;;;;;;;;;;;;;4.71;100.00;99006.56;5398019;26;19936;-88
2024/04/19 15:21:06;;;;;;;;;;;;;;;4.86;100.00;99010.44;5399739;26;20336;-90
2024/04/19 15:23:32;;;;;;;;;;;;;;;4.87;100.00;99006.09;5369304;26;19928;-82
2024/04/19 15:25:57;;;;;;;;;;;;;;;4.77;100.00;98999.38;5400245;26;20383;-80
2024/04/19 15:28:22;;;;;;;;;;;;;;;4.73;100.00;99004.72;5399493;26;20331;-87
2024/04/19 15:30:48;;;;;;;;;;;;;;;4.89;100.00;99010.34;5368046;26;19929;-91
2024/04/19 15:33:13;;;;;;;;;;;;;;;4.80;100.00;99018.50;5365025;26;19938;-84
2024/04/19 15:35:38;;;;;;;;;;;;;;;4.88;100.00;99021.78;5399779;26;20272;-81
2024/04/19 15:38:04;;;;;;;;;;;;;;;4.77;100.00;99016.03;5367604;26;19929;-81
2024/04/19 15:40:29;;;;;;;;;;;;;;;4.74;100.00;98997.75;5368829;26;20257;-81
2024/04/19 15:42:54;;;;;;;;;;;;;;;4.82;100.00;99000.97;5368030;26;19929;-82
2024/04/19 15:45:19;;;;;;;;;;;;;;;4.99;100.00;98996.94;5399521;26;19930;-82
2024/04/19 15:47:45;;;;;;;;;;;;;;;4.85;100.00;98989.50;5364591;26;20102;-88
2024/04/19 15:50:10;;;;;;;;;;;;;;;4.74;100.00;98987.25;5367838;26;19936;-84
2024/04/19 15:52:36;;;;;;;;;;;;;;;4.71;100.00;98995.22;5399198;26;19929;-84
2024/04/19 15:55:01;;;;;;;;;;;;;;;4.86;100.00;98997.31;5368582;26;19936;-82
2024/04/19 15:57:26;;;;;;;;;;;;;;;4.77;100.00;98997.66;5400181;26;19941;-83
2024/04/19 15:59:52;;;;;;;;;;;;;;;4.84;100.00;99003.56;5357782;26;19929;-90
2024/04/19 16:02:18;;;;;;;;;;;;;;;4.79;100.00;99005.47;5387904;26;20306;-84
2024/04/19 16:04:43;;;;;;;;;;;;;;;4.70;100.00;98991.69;5368038;26;19930;-80
2024/04/19 16:07:08;;;;;;;;;;;;;;;4.71;100.00;99005.72;5366652;26;19934;-86
2024/04/19 16:09:34;;;;;;;;;;;;;;;4.90;100.00;99005.97;5399208;26;19928;-86
2024/04/19 16:11:59;;;;;;;;;;;;;;;5.37;100.00;99002.69;5368248;26;19929;-86
2024/04/19 16:14:25;;;;;;;;;;;;;;;5.70;100.00;99010.31;5368028;26;19929;-85
2024/04/19 16:16:50;;;;;;;;;;;;;;;5.86;100.00;99011.47;5399453;26;19929;-80
2024/04/19 16:19:15;;;;;;;;;;;;;;;5.98;100.00;99021.59;5397901;26;19972;-88
2024/04/19 16:21:41;;;;;;;;;;;;;;;6.15;100.00;99020.13;5368351;26;19937;-87
2024/04/19 16:24:06;;;;;;;;;;;;;;;6.24;100.00;99014.53;5367594;26;19930;-79
2024/04/19 16:26:33;;;;;;;;;;;;;;;6.31;100.00;99023.03;5398830;26;20364;-83
2024/04/19 16:28:58;;;;;;;;;;;;;;;6.41;100.00;99018.28;5396489;26;19937;-86
2024/04/19 16:31:24;;;;;;;;;;;;;;;6.52;100.00;99027.47;5398817;26;19929;-86
2024/04/19 16:33:49;;;;;;;;;;;;;;;6.58;100.00;99039.53;5366795;26;19929;-85
2024/04/19 16:36:14;;;;;;;;;;;;;;;6.66;100.00;99036.63;5367718;26;19929;-86
2024/04/19 16:38:39;;;;;;;;;;;;;;;6.71;100.00;99038.16;5398311;26;19929;-82
2024/04/19 16:41:05;;;;;;;;;;;;;;;6.75;100.00;99033.63;5398661;26;19957;-87
2024/04/19 16:43:30;;;;;;;;;;;;;;;6.80;100.00;99034.31;5368475;26;19930;-84
2024/04/19 16:45:55;;;;;;;;;;;;;;;6.83;100.00;99031.56;5398915;26;20344;-87
2024/04/19 16:48:41;;;;;;;;;;;;;;;6.87;100.00;99041.03;5396481;26;19929;-89
2024/04/19 16:51:06;;;;;;;;;;;;;;;6.91;100.00;99047.91;5397726;26;19933;-80
2024/04/19 16:53:32;;;;;;;;;;;;;;;6.97;100.00;99044.16;5366162;26;20326;-80
2024/04/19 16:55:57;;;;;;;;;;;;;;;7.01;100.00;99060.72;5398620;26;20369;-81
2024/04/19 17:01:37;;;;;;;;;;;;;;;7.13;100.00;99044.41;5382378;26;19930;-87
2024/04/19 17:04:07;;;;;;;;;;;;;;;7.14;100.00;99040.84;5391713;26;20534;-85
2024/04/19 17:06:34;;;;;;;;;;;;;;;7.33;100.00;99046.22;5397164;26;20473;-83
2024/04/19 17:08:59;;;;;;;;;;;;;;;7.27;100.00;99035.94;5367225;26;19998;-88
2024/04/19 17:11:25;;;;;;;;;;;;;;;7.33;100.00;99035.69;5396465;26;19941;-82
2024/04/19 17:13:53;;;;;;;;;;;;;;;7.40;100.00;99028.38;5398735;26;19994;-91
2024/04/19 17:19:34;;;;;;;;;;;;;;;7.36;100.00;99032.94;5398064;26;19937;-83
2024/04/19 17:21:59;;;;;;;;;;;;;;;7.34;100.00;99037.41;5398449;26;20375;-86
2024/04/19 17:24:27;;;;;;;;;;;;;;;7.36;100.00;99032.94;5397138;26;20253;-87
2024/04/19 17:26:53;;;;;;;;;;;;;;;7.39;100.00;99034.59;5375308;26;19957;-88
2024/04/19 17:29:19;;;;;;;;;;;;;;;7.42;100.00;99040.59;5397543;26;19932;-91
2024/04/19 17:31:44;;;;;;;;;;;;;;;7.45;100.00;99043.09;5397748;26;19929;-83
2024/04/19 17:34:09;;;;;;;;;;;;;;;7.46;100.00;99052.69;5364070;26;19929;-94
2024/04/19 17:36:35;;;;;;;;;;;;;;;7.54;100.00;99059.44;5367361;26;19930;-80
2024/04/19 17:39:03;;;;;;;;;;;;;;;7.53;100.00;99068.25;5398639;26;20364;-92
2024/04/19 17:41:28;;;;;;;;;;;;;;;7.53;100.00;99063.88;5364558;26;19929;-91
2024/04/19 17:43:53;;;;;;;;;;;;;;;7.56;100.00;99068.13;5396481;26;19940;-88
2024/04/19 17:46:19;;;;;;;;;;;;;;;7.59;100.00;99058.31;5397232;26;20378;-81
2024/04/19 17:48:44;;;;;;;;;;;;;;;7.61;100.00;99066.16;5395759;26;19929;-84
2024/04/19 17:51:09;;;;;;;;;;;;;;;7.63;100.00;99064.34;5397560;26;19940;-80
2024/04/19 17:53:34;;;;;;;;;;;;;;;7.63;100.00;99067.81;5398640;26;19937;-83
2024/04/19 17:56:00;;;;;;;;;;;;;;;7.67;100.00;99071.16;5367483;26;19935;-86
2024/04/19 17:58:25;;;;;;;;;;;;;;;7.69;100.00;99072.00;5398378;26;19929;-81
2024/04/19 18:00:50;;;;;;;;;;;;;;;7.07;100.00;99077.13;5395045;26;19937;-86
2024/04/19 18:03:16;;;;;;;;;;;;;;;6.62;100.00;99075.38;5392204;26;19929;-84
2024/04/19 18:05:41;;;;;;;;;;;;;;;6.31;100.00;99073.88;5393755;26;20013;-89
2024/04/19 18:08:07;;;;;;;;;;;;;;;6.32;100.00;99080.00;5357234;26;19934;-81
2024/04/19 18:10:32;;;;;;;;;;;;;;;6.18;100.00;99067.34;5393812;26;19933;-80
2024/04/19 18:12:57;;;;;;;;;;;;;;;6.14;100.00;99071.88;5396187;26;19929;-82
2024/04/19 18:15:23;;;;;;;;;;;;;;;6.03;100.00;99074.03;5362554;26;19929;-86
2024/04/19 18:17:49;;;;;;;;;;;;;;;5.99;100.00;99075.91;5362828;26;20559;-82
2024/04/19 18:20:14;;;;;;;;;;;;;;;5.88;100.00;99080.63;5365178;26;20219;-80
2024/04/19 18:22:39;;;;;;;;;;;;;;;5.89;100.00;99090.25;5396308;26;19929;-85
2024/04/19 18:25:05;;;;;;;;;;;;;;;5.81;100.00;99077.38;5365578;26;19999;-85
2024/04/19 18:27:32;;;;;;;;;;;;;;;5.91;100.00;99077.91;5363133;26;19929;-86
2024/04/19 18:29:58;;;;;;;;;;;;;;;5.86;100.00;99077.22;5364922;26;19935;-82
2024/04/19 18:32:24;;;;;;;;;;;;;;;5.76;100.00;99084.56;5394742;26;20361;-80
2024/04/19 18:34:51;;;;;;;;;;;;;;;5.73;100.00;99089.94;5396288;26;19936;-84
2024/04/19 18:37:16;;;;;;;;;;;;;;;5.61;100.00;99101.69;5364825;26;19937;-83
2024/04/19 18:39:41;;;;;;;;;;;;;;;5.76;100.00;99099.47;5396654;26;19929;-85